createdAt,value
2018-02-17T00:00:28.176Z,1043.97
2018-02-17T00:01:28.158Z,1043.94
2018-02-17T00:02:28.147Z,1043.94
2018-02-17T00:03:28.127Z,1044
2018-02-17T00:04:28.126Z,1043.97
2018-02-17T00:05:28.099Z,1043.97
2018-02-17T00:06:28.079Z,1044
2018-02-17T00:07:28.073Z,1044.02
2018-02-17T00:08:28.053Z,1044.04
2018-02-17T00:09:28.032Z,1044.05
2018-02-17T00:10:28.021Z,1044.05
2018-02-17T00:11:28.000Z,1044.06
2018-02-17T00:12:27.984Z,1044.06
2018-02-17T00:13:27.970Z,1044.03
2018-02-17T00:14:27.953Z,1044.04
2018-02-17T00:15:27.936Z,1044.08
2018-02-17T00:16:27.922Z,1044.1
2018-02-17T00:17:27.906Z,1044.08
2018-02-17T00:18:27.889Z,1044.09
2018-02-17T00:19:27.873Z,1044.11
2018-02-17T00:20:27.857Z,1044.12
2018-02-17T00:21:27.842Z,1044.08
2018-02-17T00:22:27.826Z,1044.1
2018-02-17T00:23:27.810Z,1044.09
2018-02-17T00:24:27.795Z,1044.12
2018-02-17T00:25:27.777Z,1044.11
2018-02-17T00:26:27.762Z,1044.11
2018-02-17T00:27:27.745Z,1044.11
2018-02-17T00:28:27.734Z,1044.08
2018-02-17T00:29:27.714Z,1044.08
2018-02-17T00:30:27.699Z,1044.1
2018-02-17T00:31:27.683Z,1044.1
2018-02-17T00:32:27.667Z,1044.09
2018-02-17T00:33:27.655Z,1044.12
2018-02-17T00:34:27.635Z,1044.12
2018-02-17T00:35:27.621Z,1044.13
2018-02-17T00:36:27.608Z,1044.17
2018-02-17T00:37:27.588Z,1044.19
2018-02-17T00:38:27.571Z,1044.15
2018-02-17T00:39:27.556Z,1044.15
2018-02-17T00:40:27.540Z,1044.17
2018-02-17T00:41:27.524Z,1044.19
2018-02-17T00:42:27.511Z,1044.17
2018-02-17T00:43:27.493Z,1044.2
2018-02-17T00:44:27.476Z,1044.24
2018-02-17T00:45:27.462Z,1044.27
2018-02-17T00:46:27.447Z,1044.26
2018-02-17T00:47:27.430Z,1044.26
2018-02-17T00:48:27.412Z,1044.28
2018-02-17T00:49:27.397Z,1044.32
2018-02-17T00:50:27.385Z,1044.3
2018-02-17T00:51:27.365Z,1044.29
2018-02-17T00:52:27.349Z,1044.28
2018-02-17T00:53:27.332Z,1044.32
2018-02-17T00:54:27.318Z,1044.29
2018-02-17T00:55:27.301Z,1044.28
2018-02-17T00:56:27.285Z,1044.36
2018-02-17T00:57:27.269Z,1044.37
2018-02-17T00:58:27.251Z,1044.33
2018-02-17T00:59:27.238Z,1044.35
2018-02-17T01:00:27.220Z,1044.4
2018-02-17T01:01:27.203Z,1044.38
2018-02-17T01:02:27.186Z,1044.4
2018-02-17T01:03:27.171Z,1044.43
2018-02-17T01:04:27.157Z,1044.42
2018-02-17T01:05:27.139Z,1044.41
2018-02-17T01:06:27.124Z,1044.44
2018-02-17T01:07:27.108Z,1044.46
2018-02-17T01:08:27.091Z,1044.49
2018-02-17T01:09:27.075Z,1044.45
2018-02-17T01:10:27.058Z,1044.41
2018-02-17T01:11:27.042Z,1044.48
2018-02-17T01:12:27.027Z,1044.44
2018-02-17T01:13:27.013Z,1044.47
2018-02-17T01:14:26.994Z,1044.48
2018-02-17T01:15:26.979Z,1044.45
2018-02-17T01:16:26.962Z,1044.47
2018-02-17T01:17:26.946Z,1044.44
2018-02-17T01:18:26.929Z,1044.44
2018-02-17T01:19:26.913Z,1044.42
2018-02-17T01:20:26.898Z,1044.44
2018-02-17T01:21:26.883Z,1044.46
2018-02-17T01:22:26.864Z,1044.48
2018-02-17T01:23:26.850Z,1044.44
2018-02-17T01:24:26.831Z,1044.45
2018-02-17T01:25:26.816Z,1044.45
2018-02-17T01:26:26.799Z,1044.51
2018-02-17T01:27:26.782Z,1044.53
2018-02-17T01:28:26.768Z,1044.52
2018-02-17T01:29:26.750Z,1044.51
2018-02-17T01:30:26.733Z,1044.56
2018-02-17T01:31:26.715Z,1044.58
2018-02-17T01:32:26.700Z,1044.65
2018-02-17T01:33:26.684Z,1044.61
2018-02-17T01:34:26.668Z,1044.63
2018-02-17T01:35:26.650Z,1044.66
2018-02-17T01:36:26.640Z,1044.66
2018-02-17T01:37:26.618Z,1044.68
2018-02-17T01:38:26.602Z,1044.69
2018-02-17T01:39:26.585Z,1044.69
2018-02-17T01:40:26.602Z,1044.65
2018-02-17T01:41:26.552Z,1044.68
2018-02-17T01:42:26.536Z,1044.63
2018-02-17T01:43:26.521Z,1044.66
2018-02-17T01:44:26.504Z,1044.65
2018-02-17T01:45:26.487Z,1044.64
2018-02-17T01:46:26.470Z,1044.63
2018-02-17T01:47:26.453Z,1044.62
2018-02-17T01:48:26.438Z,1044.62
2018-02-17T01:49:26.422Z,1044.6
2018-02-17T01:50:26.405Z,1044.62
2018-02-17T01:51:26.389Z,1044.6
2018-02-17T01:52:26.373Z,1044.56
2018-02-17T01:53:26.355Z,1044.6
2018-02-17T01:54:26.339Z,1044.61
2018-02-17T01:55:26.322Z,1044.54
2018-02-17T01:56:26.306Z,1044.5
2018-02-17T01:57:26.289Z,1044.48
2018-02-17T01:58:26.276Z,1044.49
2018-02-17T01:59:26.258Z,1044.41
2018-02-17T02:00:26.240Z,1044.37
2018-02-17T02:01:26.230Z,1044.25
2018-02-17T02:02:26.209Z,1044.21
2018-02-17T02:03:26.190Z,1044.13
2018-02-17T02:04:26.174Z,1044.07
2018-02-17T02:05:26.159Z,1044.02
2018-02-17T02:06:26.141Z,1043.98
2018-02-17T02:07:26.126Z,1043.88
2018-02-17T02:08:26.111Z,1043.8
2018-02-17T02:09:26.093Z,1043.73
2018-02-17T02:10:26.076Z,1043.68
2018-02-17T02:11:26.059Z,1043.63
2018-02-17T02:12:26.044Z,1043.57
2018-02-17T02:13:26.028Z,1043.55
2018-02-17T02:14:26.012Z,1043.49
2018-02-17T02:15:25.996Z,1043.52
2018-02-17T02:16:25.979Z,1043.46
2018-02-17T02:17:25.963Z,1043.45
2018-02-17T02:18:25.948Z,1043.4
2018-02-17T02:19:25.931Z,1043.36
2018-02-17T02:20:25.915Z,1043.33
2018-02-17T02:21:25.900Z,1043.26
2018-02-17T02:22:25.884Z,1043.22
2018-02-17T02:23:25.867Z,1043.18
2018-02-17T02:24:25.863Z,1043.15
2018-02-17T02:25:25.836Z,1043.11
2018-02-17T02:26:25.821Z,1043.09
2018-02-17T02:27:25.804Z,1043.05
2018-02-17T02:28:25.789Z,1043.03
2018-02-17T02:29:25.772Z,1042.96
2018-02-17T02:30:25.757Z,1042.91
2018-02-17T02:31:25.743Z,1042.93
2018-02-17T02:32:25.728Z,1042.92
2018-02-17T02:33:25.711Z,1042.87
2018-02-17T02:34:25.694Z,1042.83
2018-02-17T02:35:25.679Z,1042.83
2018-02-17T02:36:25.664Z,1042.79
2018-02-17T02:37:25.648Z,1042.76
2018-02-17T02:38:25.633Z,1042.76
2018-02-17T02:39:25.618Z,1042.78
2018-02-17T02:40:25.602Z,1042.76
2018-02-17T02:41:25.591Z,1042.82
2018-02-17T02:42:25.583Z,1042.81
2018-02-17T02:43:25.559Z,1042.76
2018-02-17T02:44:25.539Z,1042.79
2018-02-17T02:45:25.524Z,1042.76
2018-02-17T02:46:25.510Z,1042.73
2018-02-17T02:47:25.494Z,1042.72
2018-02-17T02:48:25.477Z,1042.73
2018-02-17T02:49:25.462Z,1042.7
2018-02-17T02:50:25.446Z,1042.66
2018-02-17T02:51:25.431Z,1042.62
2018-02-17T02:52:25.417Z,1042.58
2018-02-17T02:53:25.401Z,1042.52
2018-02-17T02:54:25.387Z,1042.5
2018-02-17T02:55:25.372Z,1042.46
2018-02-17T02:56:25.355Z,1042.47
2018-02-17T02:57:25.341Z,1042.42
2018-02-17T02:58:25.328Z,1042.37
2018-02-17T02:59:25.566Z,1042.35
2018-02-17T03:00:25.293Z,1042.39
2018-02-17T03:01:25.278Z,1042.34
2018-02-17T03:02:25.269Z,1042.32
2018-02-17T03:03:25.248Z,1042.25
2018-02-17T03:04:25.234Z,1042.27
2018-02-17T03:05:25.218Z,1042.25
2018-02-17T03:06:25.203Z,1042.19
2018-02-17T03:07:25.187Z,1042.16
2018-02-17T03:08:25.172Z,1042.12
2018-02-17T03:09:25.156Z,1042.06
2018-02-17T03:10:25.142Z,1042.02
2018-02-17T03:11:25.126Z,1042.04
2018-02-17T03:12:25.110Z,1041.99
2018-02-17T03:13:25.097Z,1041.96
2018-02-17T03:14:25.080Z,1041.95
2018-02-17T03:15:25.066Z,1041.96
2018-02-17T03:16:25.055Z,1041.96
2018-02-17T03:17:25.036Z,1041.94
2018-02-17T03:18:25.021Z,1041.95
2018-02-17T03:19:25.010Z,1041.95
2018-02-17T03:20:24.991Z,1041.97
2018-02-17T03:21:24.976Z,1041.94
2018-02-17T03:22:24.962Z,1041.88
2018-02-17T03:23:24.946Z,1041.84
2018-02-17T03:24:24.931Z,1041.88
2018-02-17T03:25:24.917Z,1041.86
2018-02-17T03:26:24.902Z,1041.87
2018-02-17T03:27:24.888Z,1041.83
2018-02-17T03:28:24.873Z,1041.83
2018-02-17T03:29:24.858Z,1041.84
2018-02-17T03:30:24.845Z,1041.85
2018-02-17T03:31:24.829Z,1041.86
2018-02-17T03:32:24.813Z,1041.86
2018-02-17T03:33:24.798Z,1041.85
2018-02-17T03:34:24.783Z,1041.8
2018-02-17T03:35:24.773Z,1041.81
2018-02-17T03:36:24.755Z,1041.82
2018-02-17T03:37:24.739Z,1041.78
2018-02-17T03:38:24.726Z,1041.75
2018-02-17T03:39:24.710Z,1041.75
2018-02-17T03:40:24.695Z,1041.7
2018-02-17T03:41:24.680Z,1041.68
2018-02-17T03:42:24.666Z,1041.67
2018-02-17T03:43:24.651Z,1041.66
2018-02-17T03:44:24.639Z,1041.66
2018-02-17T03:45:24.622Z,1041.68
2018-02-17T03:46:24.606Z,1041.66
2018-02-17T03:47:24.591Z,1041.67
2018-02-17T03:48:24.576Z,1041.66
2018-02-17T03:49:24.561Z,1041.65
2018-02-17T03:50:24.546Z,1041.62
2018-02-17T03:51:24.531Z,1041.59
2018-02-17T03:52:24.518Z,1041.56
2018-02-17T03:53:24.502Z,1041.55
2018-02-17T03:54:24.487Z,1041.54
2018-02-17T03:55:24.473Z,1041.47
2018-02-17T03:56:24.458Z,1041.47
2018-02-17T03:57:24.444Z,1041.47
2018-02-17T03:58:24.428Z,1041.46
2018-02-17T03:59:24.418Z,1041.44
2018-02-17T04:00:24.398Z,1041.42
2018-02-17T04:01:24.383Z,1041.41
2018-02-17T04:02:24.369Z,1041.41
2018-02-17T04:03:24.359Z,1041.4
2018-02-17T04:04:24.342Z,1041.39
2018-02-17T04:05:24.325Z,1041.43
2018-02-17T04:06:24.310Z,1041.43
2018-02-17T04:07:24.296Z,1041.38
2018-02-17T04:08:24.280Z,1041.35
2018-02-17T04:09:24.265Z,1041.31
2018-02-17T04:10:24.251Z,1041.3
2018-02-17T04:11:24.236Z,1041.31
2018-02-17T04:12:24.222Z,1041.34
2018-02-17T04:13:24.207Z,1041.37
2018-02-17T04:14:24.192Z,1041.36
2018-02-17T04:15:24.178Z,1041.33
2018-02-17T04:16:24.163Z,1041.33
2018-02-17T04:17:24.150Z,1041.35
2018-02-17T04:18:24.141Z,1041.34
2018-02-17T04:19:24.118Z,1041.31
2018-02-17T04:20:24.104Z,1041.35
2018-02-17T04:21:24.089Z,1041.34
2018-02-17T04:22:24.076Z,1041.3
2018-02-17T04:23:24.060Z,1041.32
2018-02-17T04:24:24.045Z,1041.3
2018-02-17T04:25:24.030Z,1041.29
2018-02-17T04:26:24.016Z,1041.28
2018-02-17T04:27:24.000Z,1041.31
2018-02-17T04:28:23.986Z,1041.26
2018-02-17T04:29:23.973Z,1041.3
2018-02-17T04:30:23.962Z,1041.28
2018-02-17T04:31:23.944Z,1041.31
2018-02-17T04:32:23.928Z,1041.28
2018-02-17T04:33:23.917Z,1041.32
2018-02-17T04:34:23.898Z,1041.34
2018-02-17T04:35:23.885Z,1041.32
2018-02-17T04:36:23.870Z,1041.31
2018-02-17T04:37:23.854Z,1041.32
2018-02-17T04:38:23.840Z,1041.25
2018-02-17T04:39:23.828Z,1041.23
2018-02-17T04:40:23.814Z,1041.18
2018-02-17T04:41:23.798Z,1041.19
2018-02-17T04:42:23.783Z,1041.16
2018-02-17T04:43:23.769Z,1041.15
2018-02-17T04:44:23.760Z,1041.15
2018-02-17T04:45:23.740Z,1041.1
2018-02-17T04:46:23.725Z,1041.11
2018-02-17T04:47:23.711Z,1041.06
2018-02-17T04:48:23.696Z,1041.03
2018-02-17T04:49:23.681Z,1041.05
2018-02-17T04:50:23.667Z,1041.07
2018-02-17T04:51:23.653Z,1041.1
2018-02-17T04:52:23.639Z,1041.08
2018-02-17T04:53:23.624Z,1041.03
2018-02-17T04:54:23.609Z,1041
2018-02-17T04:55:23.596Z,1041.01
2018-02-17T04:56:23.579Z,1040.99
2018-02-17T04:57:23.566Z,1040.97
2018-02-17T04:58:23.550Z,1040.94
2018-02-17T04:59:23.536Z,1040.88
2018-02-17T05:00:23.522Z,1040.89
2018-02-17T05:01:23.507Z,1040.86
2018-02-17T05:02:23.493Z,1040.81
2018-02-17T05:03:23.477Z,1040.8
2018-02-17T05:04:23.464Z,1040.86
2018-02-17T05:05:23.449Z,1040.79
2018-02-17T05:06:23.435Z,1040.81
2018-02-17T05:07:23.419Z,1040.75
2018-02-17T05:08:23.406Z,1040.75
2018-02-17T05:09:23.391Z,1040.73
2018-02-17T05:10:23.376Z,1040.69
2018-02-17T05:11:23.361Z,1040.66
2018-02-17T05:12:23.347Z,1040.63
2018-02-17T05:13:23.333Z,1040.61
2018-02-17T05:14:23.318Z,1040.67
2018-02-17T05:15:23.303Z,1040.66
2018-02-17T05:16:23.290Z,1040.65
2018-02-17T05:17:23.275Z,1040.65
2018-02-17T05:18:23.259Z,1040.64
2018-02-17T05:19:23.246Z,1040.69
2018-02-17T05:20:23.231Z,1040.61
2018-02-17T05:21:23.217Z,1040.61
2018-02-17T05:22:23.205Z,1040.59
2018-02-17T05:23:23.188Z,1040.56
2018-02-17T05:24:23.175Z,1040.52
2018-02-17T05:25:23.158Z,1040.52
2018-02-17T05:26:23.146Z,1040.5
2018-02-17T05:27:23.131Z,1040.53
2018-02-17T05:28:23.117Z,1040.54
2018-02-17T05:29:23.101Z,1040.55
2018-02-17T05:30:23.089Z,1040.56
2018-02-17T05:31:23.073Z,1040.55
2018-02-17T05:32:23.060Z,1040.53
2018-02-17T05:33:23.045Z,1040.59
2018-02-17T05:34:23.067Z,1040.57
2018-02-17T05:35:23.267Z,1040.6
2018-02-17T05:36:23.000Z,1040.57
2018-02-17T05:37:22.986Z,1040.56
2018-02-17T05:38:22.974Z,1040.61
2018-02-17T05:39:22.958Z,1040.58
2018-02-17T05:40:22.943Z,1040.56
2018-02-17T05:41:22.931Z,1040.59
2018-02-17T05:42:22.918Z,1040.56
2018-02-17T05:43:22.901Z,1040.59
2018-02-17T05:44:22.887Z,1040.58
2018-02-17T05:45:22.872Z,1040.57
2018-02-17T05:46:22.859Z,1040.57
2018-02-17T05:47:22.844Z,1040.55
2018-02-17T05:48:22.829Z,1040.57
2018-02-17T05:49:22.815Z,1040.56
2018-02-17T05:50:22.801Z,1040.58
2018-02-17T05:51:22.787Z,1040.62
2018-02-17T05:52:22.773Z,1040.58
2018-02-17T05:53:22.759Z,1040.57
2018-02-17T05:54:22.743Z,1040.58
2018-02-17T05:55:22.729Z,1040.55
2018-02-17T05:56:22.715Z,1040.53
2018-02-17T05:57:22.702Z,1040.54
2018-02-17T05:58:22.686Z,1040.54
2018-02-17T05:59:22.673Z,1040.55
2018-02-17T06:00:22.659Z,1040.51
2018-02-17T06:01:22.643Z,1040.56
2018-02-17T06:02:22.629Z,1040.63
2018-02-17T06:03:22.615Z,1040.64
2018-02-17T06:04:22.601Z,1040.65
2018-02-17T06:05:22.587Z,1040.67
2018-02-17T06:06:22.573Z,1040.67
2018-02-17T06:07:22.559Z,1040.69
2018-02-17T06:08:22.544Z,1040.69
2018-02-17T06:09:22.530Z,1040.68
2018-02-17T06:10:22.516Z,1040.69
2018-02-17T06:11:22.502Z,1040.68
2018-02-17T06:12:22.487Z,1040.74
2018-02-17T06:13:22.473Z,1040.72
2018-02-17T06:14:22.459Z,1040.73
2018-02-17T06:15:22.446Z,1040.7
2018-02-17T06:16:22.434Z,1040.7
2018-02-17T06:17:22.416Z,1040.65
2018-02-17T06:18:22.402Z,1040.68
2018-02-17T06:19:22.387Z,1040.67
2018-02-17T06:20:22.373Z,1040.71
2018-02-17T06:21:22.359Z,1040.81
2018-02-17T06:22:22.346Z,1040.87
2018-02-17T06:23:22.331Z,1040.82
2018-02-17T06:24:22.316Z,1040.83
2018-02-17T06:25:22.301Z,1040.84
2018-02-17T06:26:22.288Z,1040.82
2018-02-17T06:27:22.273Z,1040.83
2018-02-17T06:28:22.260Z,1040.83
2018-02-17T06:29:22.246Z,1040.87
2018-02-17T06:30:22.232Z,1040.91
2018-02-17T06:31:22.217Z,1040.95
2018-02-17T06:32:22.202Z,1040.95
2018-02-17T06:33:22.189Z,1040.98
2018-02-17T06:34:22.174Z,1040.97
2018-02-17T06:35:22.160Z,1040.97
2018-02-17T06:36:22.146Z,1040.95
2018-02-17T06:37:22.132Z,1040.97
2018-02-17T06:38:22.116Z,1040.94
2018-02-17T06:39:22.103Z,1040.9
2018-02-17T06:40:22.089Z,1040.78
2018-02-17T06:41:22.074Z,1040.71
2018-02-17T06:42:22.063Z,1040.7
2018-02-17T06:43:22.045Z,1040.65
2018-02-17T06:44:22.032Z,1040.66
2018-02-17T06:45:22.016Z,1040.6
2018-02-17T06:46:22.002Z,1040.6
2018-02-17T06:47:21.989Z,1040.63
2018-02-17T06:48:21.974Z,1040.57
2018-02-17T06:49:21.959Z,1040.61
2018-02-17T06:50:21.945Z,1040.64
2018-02-17T06:51:21.931Z,1040.57
2018-02-17T06:52:21.917Z,1040.55
2018-02-17T06:53:21.901Z,1040.58
2018-02-17T06:54:21.888Z,1040.59
2018-02-17T06:55:21.875Z,1040.54
2018-02-17T06:56:21.858Z,1040.56
2018-02-17T06:57:21.845Z,1040.59
2018-02-17T06:58:21.831Z,1040.62
2018-02-17T06:59:21.819Z,1040.65
2018-02-17T07:00:21.803Z,1040.64
2018-02-17T07:01:21.790Z,1040.62
2018-02-17T07:02:21.774Z,1040.55
2018-02-17T07:03:21.764Z,1040.46
2018-02-17T07:04:21.746Z,1040.43
2018-02-17T07:05:21.734Z,1040.43
2018-02-17T07:06:21.726Z,1040.39
2018-02-17T07:07:21.704Z,1040.39
2018-02-17T07:08:21.691Z,1040.35
2018-02-17T07:09:21.676Z,1040.3
2018-02-17T07:10:21.663Z,1040.29
2018-02-17T07:11:21.649Z,1040.2
2018-02-17T07:12:21.635Z,1040.13
2018-02-17T07:13:21.624Z,1040.13
2018-02-17T07:14:21.606Z,1040.1
2018-02-17T07:15:21.594Z,1040.1
2018-02-17T07:16:21.580Z,1040.09
2018-02-17T07:17:21.566Z,1040.06
2018-02-17T07:18:21.551Z,1040
2018-02-17T07:19:21.540Z,1039.96
2018-02-17T07:20:21.524Z,1039.93
2018-02-17T07:21:21.511Z,1039.87
2018-02-17T07:22:21.499Z,1039.82
2018-02-17T07:23:21.482Z,1039.75
2018-02-17T07:24:21.469Z,1039.71
2018-02-17T07:25:21.455Z,1039.64
2018-02-17T07:26:21.444Z,1039.61
2018-02-17T07:27:21.456Z,1039.58
2018-02-17T07:28:21.414Z,1039.55
2018-02-17T07:29:21.399Z,1039.57
2018-02-17T07:30:21.388Z,1039.48
2018-02-17T07:31:21.375Z,1039.42
2018-02-17T07:32:21.364Z,1039.38
2018-02-17T07:33:21.347Z,1039.31
2018-02-17T07:34:21.333Z,1039.26
2018-02-17T07:35:21.320Z,1039.23
2018-02-17T07:36:21.307Z,1039.23
2018-02-17T07:37:21.298Z,1039.15
2018-02-17T07:38:21.279Z,1039.12
2018-02-17T07:39:21.267Z,1039.04
2018-02-17T07:40:21.255Z,1039
2018-02-17T07:41:21.240Z,1038.98
2018-02-17T07:42:21.226Z,1038.96
2018-02-17T07:43:21.215Z,1038.98
2018-02-17T07:44:21.200Z,1038.95
2018-02-17T07:45:21.187Z,1038.93
2018-02-17T07:46:21.174Z,1038.93
2018-02-17T07:47:21.161Z,1038.9
2018-02-17T07:48:21.147Z,1038.88
2018-02-17T07:49:21.135Z,1038.86
2018-02-17T07:50:21.123Z,1038.79
2018-02-17T07:51:21.109Z,1038.83
2018-02-17T07:52:21.096Z,1038.76
2018-02-17T07:53:21.083Z,1038.77
2018-02-17T07:54:21.073Z,1038.72
2018-02-17T07:55:21.059Z,1038.7
2018-02-17T07:56:21.045Z,1038.74
2018-02-17T07:57:21.033Z,1038.73
2018-02-17T07:58:21.041Z,1038.69
2018-02-17T07:59:21.006Z,1038.68
2018-02-17T08:00:20.994Z,1038.68
2018-02-17T08:01:20.982Z,1038.63
2018-02-17T08:02:20.968Z,1038.65
2018-02-17T08:03:20.956Z,1038.61
2018-02-17T08:04:20.944Z,1038.62
2018-02-17T08:05:20.931Z,1038.59
2018-02-17T08:06:20.920Z,1038.56
2018-02-17T08:07:20.906Z,1038.58
2018-02-17T08:08:20.896Z,1038.54
2018-02-17T08:09:20.880Z,1038.6
2018-02-17T08:10:20.868Z,1038.56
2018-02-17T08:11:21.106Z,1038.56
2018-02-17T08:12:20.842Z,1038.57
2018-02-17T08:13:20.829Z,1038.54
2018-02-17T08:14:20.817Z,1038.56
2018-02-17T08:15:20.806Z,1038.56
2018-02-17T08:16:20.794Z,1038.58
2018-02-17T08:17:20.781Z,1038.55
2018-02-17T08:18:20.769Z,1038.54
2018-02-17T08:19:20.757Z,1038.59
2018-02-17T08:20:20.744Z,1038.56
2018-02-17T08:21:20.732Z,1038.56
2018-02-17T08:22:20.718Z,1038.58
2018-02-17T08:23:20.707Z,1038.56
2018-02-17T08:24:20.694Z,1038.62
2018-02-17T08:25:20.682Z,1038.62
2018-02-17T08:26:20.668Z,1038.61
2018-02-17T08:27:20.659Z,1038.61
2018-02-17T08:28:20.645Z,1038.54
2018-02-17T08:29:20.632Z,1038.55
2018-02-17T08:30:20.622Z,1038.57
2018-02-17T08:31:20.607Z,1038.6
2018-02-17T08:32:20.594Z,1038.56
2018-02-17T08:33:20.584Z,1038.59
2018-02-17T08:34:20.574Z,1038.52
2018-02-17T08:35:20.559Z,1038.45
2018-02-17T08:36:20.545Z,1038.43
2018-02-17T08:37:20.534Z,1038.44
2018-02-17T08:38:20.522Z,1038.37
2018-02-17T08:39:20.510Z,1038.38
2018-02-17T08:40:20.501Z,1038.37
2018-02-17T08:41:20.485Z,1038.34
2018-02-17T08:42:20.473Z,1038.3
2018-02-17T08:43:20.470Z,1038.32
2018-02-17T08:44:20.449Z,1038.27
2018-02-17T08:45:20.436Z,1038.3
2018-02-17T08:46:20.424Z,1038.32
2018-02-17T08:47:20.413Z,1038.29
2018-02-17T08:48:20.400Z,1038.27
2018-02-17T08:49:20.388Z,1038.31
2018-02-17T08:50:20.376Z,1038.25
2018-02-17T08:51:20.363Z,1038.21
2018-02-17T08:52:20.352Z,1038.21
2018-02-17T08:53:20.339Z,1038.17
2018-02-17T08:54:20.327Z,1038.12
2018-02-17T08:55:20.315Z,1038.08
2018-02-17T08:56:20.303Z,1038.04
2018-02-17T08:57:20.291Z,1038
2018-02-17T08:58:20.279Z,1038.01
2018-02-17T08:59:20.268Z,1037.98
2018-02-17T09:00:20.255Z,1037.9
2018-02-17T09:01:20.242Z,1037.9
2018-02-17T09:02:20.233Z,1037.84
2018-02-17T09:03:20.219Z,1037.84
2018-02-17T09:04:20.209Z,1037.8
2018-02-17T09:05:20.194Z,1037.79
2018-02-17T09:06:20.183Z,1037.78
2018-02-17T09:07:20.178Z,1037.8
2018-02-17T09:08:20.159Z,1037.82
2018-02-17T09:09:20.148Z,1037.75
2018-02-17T09:10:20.142Z,1037.69
2018-02-17T09:11:20.122Z,1037.64
2018-02-17T09:12:20.111Z,1037.58
2018-02-17T09:13:20.099Z,1037.56
2018-02-17T09:14:20.087Z,1037.53
2018-02-17T09:15:20.076Z,1037.52
2018-02-17T09:16:20.063Z,1037.44
2018-02-17T09:17:20.052Z,1037.41
2018-02-17T09:18:20.041Z,1037.37
2018-02-17T09:19:20.029Z,1037.3
2018-02-17T09:20:20.016Z,1037.28
2018-02-17T09:21:20.006Z,1037.2
2018-02-17T09:22:19.993Z,1037.13
2018-02-17T09:23:19.984Z,1037.04
2018-02-17T09:24:19.969Z,1036.98
2018-02-17T09:25:19.958Z,1036.93
2018-02-17T09:26:19.945Z,1036.94
2018-02-17T09:27:19.939Z,1036.84
2018-02-17T09:28:19.923Z,1036.75
2018-02-17T09:29:19.913Z,1036.67
2018-02-17T09:30:19.911Z,1036.59
2018-02-17T09:31:19.889Z,1036.5
2018-02-17T09:32:19.879Z,1036.39
2018-02-17T09:33:19.867Z,1036.35
2018-02-17T09:34:19.855Z,1036.25
2018-02-17T09:35:19.844Z,1036.19
2018-02-17T09:36:19.833Z,1036.13
2018-02-17T09:37:19.822Z,1036.13
2018-02-17T09:38:19.812Z,1036.04
2018-02-17T09:39:19.802Z,1036.06
2018-02-17T09:40:19.792Z,1036.02
2018-02-17T09:41:19.780Z,1035.99
2018-02-17T09:42:19.769Z,1035.96
2018-02-17T09:43:19.758Z,1035.88
2018-02-17T09:44:19.751Z,1035.92
2018-02-17T09:45:19.740Z,1035.9
2018-02-17T09:46:19.728Z,1035.92
2018-02-17T09:47:19.715Z,1035.88
2018-02-17T09:48:19.704Z,1035.83
2018-02-17T09:49:19.694Z,1035.76
2018-02-17T09:50:19.686Z,1035.78
2018-02-17T09:51:19.675Z,1035.75
2018-02-17T09:52:19.664Z,1035.7
2018-02-17T09:53:19.654Z,1035.7
2018-02-17T09:54:19.644Z,1035.64
2018-02-17T09:55:19.633Z,1035.66
2018-02-17T09:56:19.622Z,1035.62
2018-02-17T09:57:19.613Z,1035.6
2018-02-17T09:58:19.605Z,1035.55
2018-02-17T09:59:19.593Z,1035.52
2018-02-17T10:00:19.582Z,1035.52
2018-02-17T10:01:19.573Z,1035.52
2018-02-17T10:02:19.577Z,1035.51
2018-02-17T10:03:19.551Z,1035.46
2018-02-17T10:04:19.544Z,1035.45
2018-02-17T10:05:19.534Z,1035.47
2018-02-17T10:06:19.529Z,1035.46
2018-02-17T10:07:19.514Z,1035.47
2018-02-17T10:08:19.504Z,1035.44
2018-02-17T10:09:19.497Z,1035.48
2018-02-17T10:10:19.484Z,1035.53
2018-02-17T10:11:19.480Z,1035.47
2018-02-17T10:12:19.465Z,1035.54
2018-02-17T10:13:19.456Z,1035.59
2018-02-17T10:14:19.446Z,1035.58
2018-02-17T10:15:19.438Z,1035.54
2018-02-17T10:16:19.427Z,1035.56
2018-02-17T10:17:19.421Z,1035.56
2018-02-17T10:18:19.409Z,1035.51
2018-02-17T10:19:19.399Z,1035.44
2018-02-17T10:20:19.390Z,1035.42
2018-02-17T10:21:19.380Z,1035.34
2018-02-17T10:22:19.371Z,1035.3
2018-02-17T10:23:19.361Z,1035.29
2018-02-17T10:24:19.351Z,1035.33
2018-02-17T10:25:19.342Z,1035.33
2018-02-17T10:26:19.332Z,1035.29
2018-02-17T10:27:19.326Z,1035.29
2018-02-17T10:28:19.318Z,1035.26
2018-02-17T10:29:19.305Z,1035.31
2018-02-17T10:30:19.296Z,1035.3
2018-02-17T10:31:19.287Z,1035.31
2018-02-17T10:32:19.276Z,1035.33
2018-02-17T10:33:19.268Z,1035.32
2018-02-17T10:34:19.259Z,1035.34
2018-02-17T10:35:19.250Z,1035.34
2018-02-17T10:36:19.239Z,1035.36
2018-02-17T10:37:19.231Z,1035.3
2018-02-17T10:38:19.223Z,1035.25
2018-02-17T10:39:19.212Z,1035.21
2018-02-17T10:40:19.207Z,1035.22
2018-02-17T10:41:19.194Z,1035.18
2018-02-17T10:42:19.187Z,1035.16
2018-02-17T10:43:19.175Z,1035.2
2018-02-17T10:44:19.167Z,1035.23
2018-02-17T10:45:19.158Z,1035.26
2018-02-17T10:46:19.148Z,1035.31
2018-02-17T10:47:19.140Z,1035.27
2018-02-17T10:48:19.132Z,1035.25
2018-02-17T10:49:19.122Z,1035.2
2018-02-17T10:50:19.113Z,1035.18
2018-02-17T10:51:19.104Z,1035.16
2018-02-17T10:52:19.097Z,1035.16
2018-02-17T10:53:19.087Z,1035.13
2018-02-17T10:54:19.078Z,1035.11
2018-02-17T10:55:19.070Z,1035.1
2018-02-17T10:56:19.062Z,1035.07
2018-02-17T10:57:19.053Z,1035.04
2018-02-17T10:58:19.042Z,1035.02
2018-02-17T10:59:19.033Z,1034.96
2018-02-17T11:00:19.025Z,1034.95
2018-02-17T11:01:19.015Z,1034.92
2018-02-17T11:02:19.013Z,1034.9
2018-02-17T11:03:18.998Z,1034.92
2018-02-17T11:04:18.991Z,1034.92
2018-02-17T11:05:18.982Z,1034.91
2018-02-17T11:06:18.978Z,1034.89
2018-02-17T11:07:18.964Z,1034.86
2018-02-17T11:08:18.960Z,1034.91
2018-02-17T11:09:18.947Z,1034.96
2018-02-17T11:10:18.939Z,1035.01
2018-02-17T11:11:18.934Z,1035.07
2018-02-17T11:12:18.979Z,1035.08
2018-02-17T11:13:18.912Z,1035.04
2018-02-17T11:14:18.905Z,1035.07
2018-02-17T11:15:18.896Z,1035.03
2018-02-17T11:16:18.887Z,1035.04
2018-02-17T11:17:18.879Z,1035.07
2018-02-17T11:18:19.121Z,1035.06
2018-02-17T11:19:18.860Z,1035.05
2018-02-17T11:20:18.853Z,1035.08
2018-02-17T11:21:18.844Z,1035.13
2018-02-17T11:22:18.836Z,1035.11
2018-02-17T11:23:18.826Z,1035.09
2018-02-17T11:24:18.819Z,1035.08
2018-02-17T11:25:18.811Z,1035.03
2018-02-17T11:26:18.800Z,1034.99
2018-02-17T11:27:18.791Z,1034.91
2018-02-17T11:28:18.785Z,1034.84
2018-02-17T11:29:18.777Z,1034.81
2018-02-17T11:30:18.766Z,1034.88
2018-02-17T11:31:18.758Z,1034.82
2018-02-17T11:32:18.750Z,1034.79
2018-02-17T11:33:18.741Z,1034.79
2018-02-17T11:34:18.732Z,1034.76
2018-02-17T11:35:18.724Z,1034.69
2018-02-17T11:36:18.716Z,1034.65
2018-02-17T11:37:18.711Z,1034.61
2018-02-17T11:38:18.703Z,1034.58
2018-02-17T11:39:18.693Z,1034.55
2018-02-17T11:40:18.681Z,1034.53
2018-02-17T11:41:18.672Z,1034.49
2018-02-17T11:42:18.665Z,1034.43
2018-02-17T11:43:18.656Z,1034.43
2018-02-17T11:44:18.648Z,1034.37
2018-02-17T11:45:18.639Z,1034.39
2018-02-17T11:46:18.636Z,1034.37
2018-02-17T11:47:18.623Z,1034.35
2018-02-17T11:48:18.615Z,1034.37
2018-02-17T11:49:18.606Z,1034.4
2018-02-17T11:50:18.598Z,1034.42
2018-02-17T11:51:18.589Z,1034.43
2018-02-17T11:52:18.581Z,1034.38
2018-02-17T11:53:18.577Z,1034.4
2018-02-17T11:54:18.566Z,1034.41
2018-02-17T11:55:18.562Z,1034.43
2018-02-17T11:56:18.552Z,1034.5
2018-02-17T11:57:18.542Z,1034.46
2018-02-17T11:58:18.552Z,1034.47
2018-02-17T11:59:18.523Z,1034.48
2018-02-17T12:00:18.516Z,1034.48
2018-02-17T12:01:18.506Z,1034.42
2018-02-17T12:02:18.500Z,1034.4
2018-02-17T12:03:18.490Z,1034.37
2018-02-17T12:04:18.482Z,1034.33
2018-02-17T12:05:18.475Z,1034.32
2018-02-17T12:06:18.470Z,1034.31
2018-02-17T12:07:18.459Z,1034.28
2018-02-17T12:08:18.451Z,1034.28